sensor_id;sensor_type;location;lat;lon;timestamp;P1;durP1;ratioP1;P2;durP2;ratioP2
62256;SDS011;48240;52.962;5.790;2023-07-22T03:53:17;3.40;;;2.30;;
62256;SDS011;48240;52.962;5.790;2023-07-22T03:55:43;3.75;;;2.40;;
62256;SDS011;48240;52.962;5.790;2023-07-22T03:58:09;3.95;;;2.20;;
62256;SDS011;48240;52.962;5.790;2023-07-22T04:00:37;3.65;;;2.30;;
62256;SDS011;48240;52.962;5.790;2023-07-22T04:03:03;5.00;;;2.47;;
62256;SDS011;48240;52.962;5.790;2023-07-22T04:05:29;3.70;;;2.10;;
62256;SDS011;48240;52.962;5.790;2023-07-22T04:07:55;5.25;;;2.25;;
62256;SDS011;48240;52.962;5.790;2023-07-22T04:10:21;4.20;;;2.65;;
62256;SDS011;48240;52.962;5.790;2023-07-22T04:12:47;3.47;;;2.25;;
62256;SDS011;48240;52.962;5.790;2023-07-22T04:15:13;4.38;;;2.92;;
62256;SDS011;48240;52.962;5.790;2023-07-22T04:17:40;4.10;;;2.20;;
62256;SDS011;48240;52.962;5.790;2023-07-22T04:20:06;3.45;;;2.20;;
62256;SDS011;48240;52.962;5.790;2023-07-22T04:22:33;4.65;;;2.55;;
62256;SDS011;48240;52.962;5.790;2023-07-22T04:24:59;2.83;;;2.00;;
62256;SDS011;48240;52.962;5.790;2023-07-22T04:27:26;3.47;;;2.42;;
62256;SDS011;48240;52.962;5.790;2023-07-22T04:29:52;3.17;;;2.40;;
62256;SDS011;48240;52.962;5.790;2023-07-22T04:32:18;5.50;;;2.50;;
62256;SDS011;48240;52.962;5.790;2023-07-22T04:34:44;3.25;;;2.25;;
62256;SDS011;48240;52.962;5.790;2023-07-22T04:37:10;4.00;;;2.47;;
62256;SDS011;48240;52.962;5.790;2023-07-22T04:39:37;4.88;;;2.40;;
62256;SDS011;48240;52.962;5.790;2023-07-22T04:42:04;3.25;;;2.45;;
62256;SDS011;48240;52.962;5.790;2023-07-22T04:44:30;4.90;;;2.70;;
62256;SDS011;48240;52.962;5.790;2023-07-22T04:46:56;4.03;;;2.40;;
62256;SDS011;48240;52.962;5.790;2023-07-22T04:49:22;4.35;;;2.80;;
62256;SDS011;48240;52.962;5.790;2023-07-22T04:51:48;3.75;;;2.90;;
62256;SDS011;48240;52.962;5.790;2023-07-22T04:54:15;4.25;;;2.90;;
62256;SDS011;48240;52.962;5.790;2023-07-22T04:56:41;4.10;;;2.58;;
62256;SDS011;48240;52.962;5.790;2023-07-22T04:59:07;3.30;;;2.65;;
62256;SDS011;48240;52.962;5.790;2023-07-22T05:01:34;4.38;;;2.65;;
62256;SDS011;48240;52.962;5.790;2023-07-22T05:04:00;3.05;;;2.40;;
62256;SDS011;48240;52.962;5.790;2023-07-22T05:06:28;6.25;;;2.63;;
62256;SDS011;48240;52.962;5.790;2023-07-22T05:08:54;4.72;;;2.92;;
62256;SDS011;48240;52.962;5.790;2023-07-22T05:11:20;4.85;;;2.67;;
62256;SDS011;48240;52.962;5.790;2023-07-22T05:13:48;3.53;;;2.60;;
62256;SDS011;48240;52.962;5.790;2023-07-22T05:16:14;4.15;;;2.63;;
62256;SDS011;48240;52.962;5.790;2023-07-22T05:18:40;3.60;;;2.78;;
62256;SDS011;48240;52.962;5.790;2023-07-22T05:21:06;3.50;;;2.60;;
62256;SDS011;48240;52.962;5.790;2023-07-22T05:23:32;4.18;;;2.88;;
62256;SDS011;48240;52.962;5.790;2023-07-22T05:25:58;4.55;;;2.90;;
62256;SDS011;48240;52.962;5.790;2023-07-22T05:28:24;4.70;;;3.10;;
62256;SDS011;48240;52.962;5.790;2023-07-22T05:30:50;4.35;;;2.70;;
62256;SDS011;48240;52.962;5.790;2023-07-22T05:33:16;4.20;;;2.80;;
62256;SDS011;48240;52.962;5.790;2023-07-22T05:35:42;3.92;;;2.80;;
62256;SDS011;48240;52.962;5.790;2023-07-22T05:38:08;5.15;;;2.92;;
62256;SDS011;48240;52.962;5.790;2023-07-22T05:40:34;3.55;;;2.83;;
62256;SDS011;48240;52.962;5.790;2023-07-22T05:43:01;4.88;;;3.35;;
62256;SDS011;48240;52.962;5.790;2023-07-22T05:45:27;3.95;;;3.10;;
62256;SDS011;48240;52.962;5.790;2023-07-22T05:47:54;4.20;;;3.00;;
62256;SDS011;48240;52.962;5.790;2023-07-22T05:50:20;4.68;;;3.40;;
62256;SDS011;48240;52.962;5.790;2023-07-22T05:52:46;7.55;;;3.35;;
62256;SDS011;48240;52.962;5.790;2023-07-22T05:55:13;5.28;;;3.08;;
62256;SDS011;48240;52.962;5.790;2023-07-22T05:57:39;6.63;;;3.30;;
62256;SDS011;48240;52.962;5.790;2023-07-22T06:00:06;5.13;;;3.30;;
62256;SDS011;48240;52.962;5.790;2023-07-22T06:02:33;4.85;;;3.25;;
62256;SDS011;48240;52.962;5.790;2023-07-22T06:05:00;4.95;;;3.25;;
62256;SDS011;48240;52.962;5.790;2023-07-22T06:07:26;5.00;;;3.30;;
62256;SDS011;48240;52.962;5.790;2023-07-22T06:09:52;4.45;;;2.88;;
62256;SDS011;48240;52.962;5.790;2023-07-22T06:12:18;5.13;;;3.40;;
62256;SDS011;48240;52.962;5.790;2023-07-22T06:14:45;5.15;;;3.40;;
62256;SDS011;48240;52.962;5.790;2023-07-22T06:17:11;4.65;;;3.40;;
62256;SDS011;48240;52.962;5.790;2023-07-22T06:19:37;4.32;;;3.17;;
62256;SDS011;48240;52.962;5.790;2023-07-22T06:22:03;5.15;;;3.25;;
62256;SDS011;48240;52.962;5.790;2023-07-22T06:24:29;5.72;;;3.60;;
62256;SDS011;48240;52.962;5.790;2023-07-22T06:26:56;4.82;;;3.28;;
62256;SDS011;48240;52.962;5.790;2023-07-22T06:29:22;6.35;;;3.35;;
62256;SDS011;48240;52.962;5.790;2023-07-22T06:31:48;4.25;;;3.33;;
62256;SDS011;48240;52.962;5.790;2023-07-22T06:34:14;3.88;;;2.90;;
62256;SDS011;48240;52.962;5.790;2023-07-22T06:36:40;4.82;;;3.17;;
62256;SDS011;48240;52.962;5.790;2023-07-22T06:39:06;5.45;;;2.90;;
62256;SDS011;48240;52.962;5.790;2023-07-22T06:41:32;5.35;;;3.25;;
62256;SDS011;48240;52.962;5.790;2023-07-22T06:43:58;3.67;;;2.85;;
62256;SDS011;48240;52.962;5.790;2023-07-22T06:46:24;4.68;;;3.22;;
62256;SDS011;48240;52.962;5.790;2023-07-22T06:48:50;4.28;;;3.22;;
62256;SDS011;48240;52.962;5.790;2023-07-22T06:51:16;4.45;;;2.97;;
62256;SDS011;48240;52.962;5.790;2023-07-22T06:53:42;4.95;;;3.10;;
62256;SDS011;48240;52.962;5.790;2023-07-22T06:56:08;6.63;;;3.10;;
62256;SDS011;48240;52.962;5.790;2023-07-22T06:58:34;4.47;;;3.08;;
62256;SDS011;48240;52.962;5.790;2023-07-22T07:01:01;4.40;;;3.20;;
62256;SDS011;48240;52.962;5.790;2023-07-22T07:03:27;4.40;;;3.00;;
62256;SDS011;48240;52.962;5.790;2023-07-22T07:05:56;4.90;;;3.45;;
62256;SDS011;48240;52.962;5.790;2023-07-22T07:08:22;6.43;;;3.72;;
62256;SDS011;48240;52.962;5.790;2023-07-22T07:10:49;6.38;;;3.70;;
62256;SDS011;48240;52.962;5.790;2023-07-22T07:13:16;5.60;;;3.60;;
62256;SDS011;48240;52.962;5.790;2023-07-22T07:15:45;6.88;;;3.85;;
62256;SDS011;48240;52.962;5.790;2023-07-22T07:18:12;6.63;;;4.07;;
62256;SDS011;48240;52.962;5.790;2023-07-22T07:20:38;8.82;;;4.90;;
62256;SDS011;48240;52.962;5.790;2023-07-22T07:23:04;8.73;;;4.63;;
62256;SDS011;48240;52.962;5.790;2023-07-22T07:25:30;7.93;;;5.25;;
62256;SDS011;48240;52.962;5.790;2023-07-22T07:27:56;7.90;;;4.50;;
62256;SDS011;48240;52.962;5.790;2023-07-22T07:30:22;7.13;;;4.15;;
62256;SDS011;48240;52.962;5.790;2023-07-22T07:32:48;10.43;;;5.22;;
62256;SDS011;48240;52.962;5.790;2023-07-22T07:35:15;11.50;;;5.28;;
62256;SDS011;48240;52.962;5.790;2023-07-22T07:37:41;8.18;;;5.25;;
62256;SDS011;48240;52.962;5.790;2023-07-22T07:40:07;8.80;;;5.72;;
62256;SDS011;48240;52.962;5.790;2023-07-22T07:42:33;9.32;;;5.78;;
62256;SDS011;48240;52.962;5.790;2023-07-22T07:44:59;9.57;;;5.65;;
62256;SDS011;48240;52.962;5.790;2023-07-22T07:47:25;9.50;;;5.78;;
62256;SDS011;48240;52.962;5.790;2023-07-22T07:49:53;10.88;;;5.40;;
62256;SDS011;48240;52.962;5.790;2023-07-22T07:52:19;11.23;;;5.13;;
62256;SDS011;48240;52.962;5.790;2023-07-22T07:54:45;11.00;;;5.57;;
62256;SDS011;48240;52.962;5.790;2023-07-22T07:57:11;12.10;;;6.10;;
62256;SDS011;48240;52.962;5.790;2023-07-22T07:59:37;11.50;;;6.00;;
62256;SDS011;48240;52.962;5.790;2023-07-22T08:02:03;12.43;;;6.00;;
62256;SDS011;48240;52.962;5.790;2023-07-22T08:04:34;12.03;;;6.37;;
62256;SDS011;48240;52.962;5.790;2023-07-22T08:07:00;11.02;;;6.13;;
62256;SDS011;48240;52.962;5.790;2023-07-22T08:09:26;13.95;;;7.30;;
62256;SDS011;48240;52.962;5.790;2023-07-22T08:11:52;14.10;;;6.82;;
62256;SDS011;48240;52.962;5.790;2023-07-22T08:14:18;12.00;;;6.65;;
62256;SDS011;48240;52.962;5.790;2023-07-22T08:16:44;10.95;;;6.05;;
62256;SDS011;48240;52.962;5.790;2023-07-22T08:19:10;10.20;;;6.10;;
62256;SDS011;48240;52.962;5.790;2023-07-22T08:21:36;9.77;;;6.32;;
62256;SDS011;48240;52.962;5.790;2023-07-22T08:24:03;9.48;;;5.90;;
62256;SDS011;48240;52.962;5.790;2023-07-22T08:26:29;8.65;;;5.90;;
62256;SDS011;48240;52.962;5.790;2023-07-22T08:28:55;11.07;;;6.20;;
62256;SDS011;48240;52.962;5.790;2023-07-22T08:31:21;9.68;;;5.93;;
62256;SDS011;48240;52.962;5.790;2023-07-22T08:33:47;9.35;;;4.70;;
62256;SDS011;48240;52.962;5.790;2023-07-22T08:36:14;7.50;;;4.88;;
62256;SDS011;48240;52.962;5.790;2023-07-22T08:38:40;8.30;;;5.55;;
62256;SDS011;48240;52.962;5.790;2023-07-22T08:41:06;8.70;;;5.25;;
62256;SDS011;48240;52.962;5.790;2023-07-22T08:43:32;8.07;;;4.90;;
62256;SDS011;48240;52.962;5.790;2023-07-22T08:46:00;10.15;;;4.90;;
62256;SDS011;48240;52.962;5.790;2023-07-22T08:48:26;6.35;;;4.30;;
62256;SDS011;48240;52.962;5.790;2023-07-22T08:50:55;9.07;;;4.50;;
62256;SDS011;48240;52.962;5.790;2023-07-22T08:53:24;6.85;;;4.00;;
62256;SDS011;48240;52.962;5.790;2023-07-22T08:55:51;6.72;;;4.10;;
62256;SDS011;48240;52.962;5.790;2023-07-22T08:58:17;10.23;;;4.00;;
62256;SDS011;48240;52.962;5.790;2023-07-22T09:00:43;6.43;;;3.75;;
62256;SDS011;48240;52.962;5.790;2023-07-22T09:03:10;5.65;;;3.78;;
62256;SDS011;48240;52.962;5.790;2023-07-22T09:05:37;5.90;;;3.13;;
62256;SDS011;48240;52.962;5.790;2023-07-22T09:08:04;5.68;;;2.80;;
62256;SDS011;48240;52.962;5.790;2023-07-22T09:10:31;6.38;;;3.08;;
62256;SDS011;48240;52.962;5.790;2023-07-22T09:12:59;2.97;;;2.35;;
62256;SDS011;48240;52.962;5.790;2023-07-22T09:15:25;3.95;;;2.55;;
62256;SDS011;48240;52.962;5.790;2023-07-22T09:17:52;4.07;;;2.40;;
62256;SDS011;48240;52.962;5.790;2023-07-22T09:20:18;3.72;;;2.30;;
62256;SDS011;48240;52.962;5.790;2023-07-22T09:22:48;3.22;;;2.00;;
62256;SDS011;48240;52.962;5.790;2023-07-22T09:25:18;3.15;;;1.80;;
62256;SDS011;48240;52.962;5.790;2023-07-22T09:27:45;5.75;;;2.10;;
62256;SDS011;48240;52.962;5.790;2023-07-22T09:30:28;2.13;;;1.67;;
62256;SDS011;48240;52.962;5.790;2023-07-22T09:32:55;2.90;;;1.80;;
62256;SDS011;48240;52.962;5.790;2023-07-22T09:35:22;2.38;;;1.63;;
62256;SDS011;48240;52.962;5.790;2023-07-22T09:37:48;2.13;;;1.40;;
62256;SDS011;48240;52.962;5.790;2023-07-22T09:42:45;2.55;;;1.70;;
62256;SDS011;48240;52.962;5.790;2023-07-22T09:45:11;5.05;;;1.73;;
62256;SDS011;48240;52.962;5.790;2023-07-22T09:47:41;3.05;;;1.80;;
62256;SDS011;48240;52.962;5.790;2023-07-22T09:50:09;2.70;;;1.63;;
62256;SDS011;48240;52.962;5.790;2023-07-22T09:52:40;4.88;;;1.77;;
62256;SDS011;48240;52.962;5.790;2023-07-22T09:55:06;1.83;;;1.50;;
62256;SDS011;48240;52.962;5.790;2023-07-22T09:57:33;2.20;;;1.90;;
62256;SDS011;48240;52.962;5.790;2023-07-22T09:59:59;2.78;;;1.60;;
62256;SDS011;48240;52.962;5.790;2023-07-22T10:02:25;1.83;;;1.63;;
62256;SDS011;48240;52.962;5.790;2023-07-22T10:04:52;2.60;;;1.80;;
62256;SDS011;48240;52.962;5.790;2023-07-22T10:07:18;1.85;;;1.60;;
62256;SDS011;48240;52.962;5.790;2023-07-22T10:09:45;2.70;;;2.00;;
62256;SDS011;48240;52.962;5.790;2023-07-22T10:12:12;2.78;;;1.90;;
62256;SDS011;48240;52.962;5.790;2023-07-22T10:14:40;2.42;;;1.73;;
62256;SDS011;48240;52.962;5.790;2023-07-22T10:17:06;2.67;;;2.00;;
62256;SDS011;48240;52.962;5.790;2023-07-22T10:19:34;2.35;;;1.80;;
62256;SDS011;48240;52.962;5.790;2023-07-22T10:22:01;4.95;;;2.15;;
62256;SDS011;48240;52.962;5.790;2023-07-22T10:24:27;2.72;;;2.00;;
62256;SDS011;48240;52.962;5.790;2023-07-22T10:26:53;3.65;;;2.15;;
62256;SDS011;48240;52.962;5.790;2023-07-22T10:29:20;2.38;;;1.85;;
62256;SDS011;48240;52.962;5.790;2023-07-22T10:31:46;2.92;;;2.00;;
62256;SDS011;48240;52.962;5.790;2023-07-22T10:34:20;2.58;;;1.85;;
62256;SDS011;48240;52.962;5.790;2023-07-22T10:36:47;4.93;;;2.00;;
62256;SDS011;48240;52.962;5.790;2023-07-22T10:39:24;2.55;;;2.15;;
62256;SDS011;48240;52.962;5.790;2023-07-22T10:41:56;2.90;;;1.92;;
62256;SDS011;48240;52.962;5.790;2023-07-22T10:44:25;2.65;;;1.95;;
62256;SDS011;48240;52.962;5.790;2023-07-22T10:46:58;3.47;;;2.42;;
62256;SDS011;48240;52.962;5.790;2023-07-22T10:49:24;3.05;;;2.10;;
62256;SDS011;48240;52.962;5.790;2023-07-22T10:51:53;3.10;;;2.58;;
62256;SDS011;48240;52.962;5.790;2023-07-22T10:54:32;5.05;;;2.45;;
62256;SDS011;48240;52.962;5.790;2023-07-22T10:57:43;5.88;;;2.30;;
62256;SDS011;48240;52.962;5.790;2023-07-22T10:59:51;3.55;;;2.15;;
62256;SDS011;48240;52.962;5.790;2023-07-22T11:02:24;2.88;;;2.20;;
62256;SDS011;48240;52.962;5.790;2023-07-22T11:04:51;3.55;;;2.45;;
62256;SDS011;48240;52.962;5.790;2023-07-22T11:07:29;8.40;;;2.63;;
62256;SDS011;48240;52.962;5.790;2023-07-22T11:09:55;4.80;;;2.60;;
62256;SDS011;48240;52.962;5.790;2023-07-22T11:12:22;4.47;;;2.60;;
62256;SDS011;48240;52.962;5.790;2023-07-22T11:14:51;2.72;;;2.35;;
62256;SDS011;48240;52.962;5.790;2023-07-22T11:17:18;3.72;;;2.70;;
62256;SDS011;48240;52.962;5.790;2023-07-22T11:19:44;4.45;;;2.78;;
62256;SDS011;48240;52.962;5.790;2023-07-22T11:22:11;5.40;;;3.10;;
62256;SDS011;48240;52.962;5.790;2023-07-22T11:24:37;5.72;;;3.50;;
62256;SDS011;48240;52.962;5.790;2023-07-22T11:27:04;4.50;;;3.13;;
62256;SDS011;48240;52.962;5.790;2023-07-22T11:29:31;4.28;;;3.35;;
62256;SDS011;48240;52.962;5.790;2023-07-22T11:31:57;6.53;;;3.60;;
62256;SDS011;48240;52.962;5.790;2023-07-22T11:34:23;5.53;;;3.28;;
62256;SDS011;48240;52.962;5.790;2023-07-22T11:36:51;6.82;;;3.55;;
62256;SDS011;48240;52.962;5.790;2023-07-22T11:39:18;5.60;;;3.47;;
62256;SDS011;48240;52.962;5.790;2023-07-22T11:41:44;5.25;;;3.30;;
62256;SDS011;48240;52.962;5.790;2023-07-22T11:44:11;5.43;;;3.70;;
62256;SDS011;48240;52.962;5.790;2023-07-22T11:49:21;7.18;;;3.72;;
62256;SDS011;48240;52.962;5.790;2023-07-22T11:51:48;6.68;;;4.30;;
62256;SDS011;48240;52.962;5.790;2023-07-22T11:54:14;5.38;;;3.28;;
62256;SDS011;48240;52.962;5.790;2023-07-22T11:56:42;5.90;;;3.40;;
62256;SDS011;48240;52.962;5.790;2023-07-22T11:59:08;5.50;;;3.13;;
62256;SDS011;48240;52.962;5.790;2023-07-22T12:01:34;5.68;;;3.20;;
62256;SDS011;48240;52.962;5.790;2023-07-22T12:04:00;4.25;;;2.75;;
62256;SDS011;48240;52.962;5.790;2023-07-22T12:06:27;4.47;;;2.90;;
62256;SDS011;48240;52.962;5.790;2023-07-22T12:08:53;6.45;;;2.75;;
62256;SDS011;48240;52.962;5.790;2023-07-22T12:11:20;5.22;;;2.75;;
62256;SDS011;48240;52.962;5.790;2023-07-22T12:13:47;5.50;;;2.72;;
62256;SDS011;48240;52.962;5.790;2023-07-22T12:16:24;4.75;;;2.63;;
62256;SDS011;48240;52.962;5.790;2023-07-22T12:18:53;4.07;;;2.47;;
62256;SDS011;48240;52.962;5.790;2023-07-22T12:21:20;5.32;;;2.65;;
62256;SDS011;48240;52.962;5.790;2023-07-22T12:23:46;4.18;;;2.20;;
62256;SDS011;48240;52.962;5.790;2023-07-22T12:26:12;5.78;;;2.40;;
62256;SDS011;48240;52.962;5.790;2023-07-22T12:28:38;6.30;;;2.40;;
62256;SDS011;48240;52.962;5.790;2023-07-22T12:31:04;2.53;;;2.00;;
62256;SDS011;48240;52.962;5.790;2023-07-22T12:33:31;5.30;;;2.05;;
62256;SDS011;48240;52.962;5.790;2023-07-22T12:35:57;4.43;;;1.92;;
62256;SDS011;48240;52.962;5.790;2023-07-22T12:38:23;4.22;;;1.70;;
62256;SDS011;48240;52.962;5.790;2023-07-22T12:40:49;2.35;;;1.60;;
62256;SDS011;48240;52.962;5.790;2023-07-22T12:43:15;3.88;;;1.70;;
62256;SDS011;48240;52.962;5.790;2023-07-22T12:45:41;4.65;;;1.90;;
62256;SDS011;48240;52.962;5.790;2023-07-22T12:48:08;4.30;;;1.98;;
62256;SDS011;48240;52.962;5.790;2023-07-22T12:50:34;3.67;;;1.70;;
62256;SDS011;48240;52.962;5.790;2023-07-22T12:53:01;3.03;;;1.67;;
62256;SDS011;48240;52.962;5.790;2023-07-22T12:55:28;3.38;;;1.70;;
62256;SDS011;48240;52.962;5.790;2023-07-22T12:57:54;3.70;;;1.45;;
62256;SDS011;48240;52.962;5.790;2023-07-22T13:00:21;4.20;;;1.60;;
62256;SDS011;48240;52.962;5.790;2023-07-22T13:02:47;3.47;;;1.58;;
62256;SDS011;48240;52.962;5.790;2023-07-22T13:05:13;3.08;;;1.67;;
62256;SDS011;48240;52.962;5.790;2023-07-22T13:07:39;2.92;;;1.52;;
62256;SDS011;48240;52.962;5.790;2023-07-22T13:10:06;4.35;;;1.60;;
62256;SDS011;48240;52.962;5.790;2023-07-22T13:12:36;3.25;;;1.42;;
62256;SDS011;48240;52.962;5.790;2023-07-22T13:15:03;3.55;;;1.50;;
62256;SDS011;48240;52.962;5.790;2023-07-22T13:17:29;6.35;;;1.52;;
62256;SDS011;48240;52.962;5.790;2023-07-22T13:19:55;2.42;;;1.40;;
62256;SDS011;48240;52.962;5.790;2023-07-22T13:22:21;3.33;;;1.52;;
62256;SDS011;48240;52.962;5.790;2023-07-22T13:24:47;4.43;;;1.55;;
62256;SDS011;48240;52.962;5.790;2023-07-22T13:27:13;6.15;;;1.63;;
62256;SDS011;48240;52.962;5.790;2023-07-22T13:29:39;2.28;;;1.42;;
62256;SDS011;48240;52.962;5.790;2023-07-22T13:32:05;7.28;;;1.70;;
62256;SDS011;48240;52.962;5.790;2023-07-22T13:34:31;2.92;;;1.50;;
62256;SDS011;48240;52.962;5.790;2023-07-22T13:36:58;3.88;;;1.50;;
62256;SDS011;48240;52.962;5.790;2023-07-22T13:39:24;3.17;;;1.77;;
62256;SDS011;48240;52.962;5.790;2023-07-22T13:41:50;3.90;;;1.75;;
62256;SDS011;48240;52.962;5.790;2023-07-22T13:44:16;3.75;;;2.00;;
62256;SDS011;48240;52.962;5.790;2023-07-22T13:46:42;5.00;;;1.98;;
62256;SDS011;48240;52.962;5.790;2023-07-22T13:49:08;4.28;;;2.15;;
62256;SDS011;48240;52.962;5.790;2023-07-22T13:51:34;5.15;;;2.00;;
62256;SDS011;48240;52.962;5.790;2023-07-22T13:54:00;6.57;;;2.63;;
62256;SDS011;48240;52.962;5.790;2023-07-22T13:56:26;6.40;;;3.00;;
62256;SDS011;48240;52.962;5.790;2023-07-22T13:58:53;6.80;;;2.78;;
62256;SDS011;48240;52.962;5.790;2023-07-22T14:01:24;6.18;;;2.70;;
62256;SDS011;48240;52.962;5.790;2023-07-22T14:03:50;9.77;;;3.00;;
62256;SDS011;48240;52.962;5.790;2023-07-22T14:06:16;6.88;;;3.10;;
62256;SDS011;48240;52.962;5.790;2023-07-22T14:08:42;7.25;;;2.83;;
62256;SDS011;48240;52.962;5.790;2023-07-22T14:11:08;6.47;;;3.40;;
62256;SDS011;48240;52.962;5.790;2023-07-22T14:13:34;5.43;;;2.90;;
62256;SDS011;48240;52.962;5.790;2023-07-22T14:16:01;5.47;;;2.90;;
62256;SDS011;48240;52.962;5.790;2023-07-22T14:18:27;5.47;;;2.78;;
62256;SDS011;48240;52.962;5.790;2023-07-22T14:20:53;5.38;;;3.00;;
62256;SDS011;48240;52.962;5.790;2023-07-22T14:23:19;4.93;;;2.80;;
62256;SDS011;48240;52.962;5.790;2023-07-22T14:25:45;6.85;;;3.20;;
62256;SDS011;48240;52.962;5.790;2023-07-22T14:28:11;4.40;;;2.75;;
62256;SDS011;48240;52.962;5.790;2023-07-22T14:30:39;4.97;;;3.10;;
62256;SDS011;48240;52.962;5.790;2023-07-22T14:33:05;7.10;;;3.35;;
62256;SDS011;48240;52.962;5.790;2023-07-22T14:35:31;7.55;;;3.25;;
62256;SDS011;48240;52.962;5.790;2023-07-22T14:37:58;6.00;;;3.38;;
62256;SDS011;48240;52.962;5.790;2023-07-22T14:40:25;8.10;;;3.10;;
62256;SDS011;48240;52.962;5.790;2023-07-22T14:42:51;8.18;;;3.17;;
62256;SDS011;48240;52.962;5.790;2023-07-22T14:45:17;6.78;;;3.22;;
62256;SDS011;48240;52.962;5.790;2023-07-22T14:47:43;5.70;;;3.13;;
62256;SDS011;48240;52.962;5.790;2023-07-22T14:50:09;7.30;;;3.13;;
62256;SDS011;48240;52.962;5.790;2023-07-22T14:52:35;6.30;;;2.80;;
62256;SDS011;48240;52.962;5.790;2023-07-22T14:55:02;7.85;;;3.20;;
62256;SDS011;48240;52.962;5.790;2023-07-22T14:57:28;7.00;;;3.03;;
62256;SDS011;48240;52.962;5.790;2023-07-22T14:59:54;6.00;;;3.10;;
62256;SDS011;48240;52.962;5.790;2023-07-22T15:02:20;10.50;;;3.20;;
62256;SDS011;48240;52.962;5.790;2023-07-22T15:04:47;6.70;;;2.85;;
62256;SDS011;48240;52.962;5.790;2023-07-22T15:07:13;6.78;;;3.40;;
62256;SDS011;48240;52.962;5.790;2023-07-22T15:09:39;6.68;;;3.28;;
62256;SDS011;48240;52.962;5.790;2023-07-22T15:12:05;6.38;;;3.08;;
62256;SDS011;48240;52.962;5.790;2023-07-22T15:14:32;4.57;;;3.00;;
62256;SDS011;48240;52.962;5.790;2023-07-22T15:16:58;6.30;;;3.30;;
62256;SDS011;48240;52.962;5.790;2023-07-22T15:19:25;6.45;;;3.00;;
62256;SDS011;48240;52.962;5.790;2023-07-22T15:21:51;5.05;;;2.60;;
62256;SDS011;48240;52.962;5.790;2023-07-22T15:24:18;9.32;;;3.00;;
62256;SDS011;48240;52.962;5.790;2023-07-22T15:26:44;9.85;;;2.88;;
62256;SDS011;48240;52.962;5.790;2023-07-22T15:29:10;5.47;;;3.15;;
62256;SDS011;48240;52.962;5.790;2023-07-22T15:31:36;8.45;;;3.90;;
62256;SDS011;48240;52.962;5.790;2023-07-22T15:34:02;16.10;;;6.15;;
62256;SDS011;48240;52.962;5.790;2023-07-22T15:36:28;23.08;;;10.70;;
62256;SDS011;48240;52.962;5.790;2023-07-22T15:38:54;21.50;;;9.82;;
62256;SDS011;48240;52.962;5.790;2023-07-22T15:41:20;20.67;;;9.00;;
62256;SDS011;48240;52.962;5.790;2023-07-22T15:43:46;19.40;;;8.30;;
62256;SDS011;48240;52.962;5.790;2023-07-22T15:46:12;14.48;;;7.38;;
62256;SDS011;48240;52.962;5.790;2023-07-22T15:48:38;16.33;;;6.22;;
62256;SDS011;48240;52.962;5.790;2023-07-22T15:51:04;10.82;;;4.68;;
62256;SDS011;48240;52.962;5.790;2023-07-22T15:53:31;14.10;;;4.78;;
62256;SDS011;48240;52.962;5.790;2023-07-22T15:55:57;9.77;;;4.35;;
62256;SDS011;48240;52.962;5.790;2023-07-22T15:58:23;11.55;;;4.22;;
62256;SDS011;48240;52.962;5.790;2023-07-22T16:00:50;8.10;;;4.07;;
62256;SDS011;48240;52.962;5.790;2023-07-22T16:03:16;7.03;;;3.63;;
62256;SDS011;48240;52.962;5.790;2023-07-22T16:05:42;10.23;;;4.07;;
62256;SDS011;48240;52.962;5.790;2023-07-22T16:08:09;11.23;;;4.28;;
62256;SDS011;48240;52.962;5.790;2023-07-22T16:10:35;9.48;;;4.28;;
62256;SDS011;48240;52.962;5.790;2023-07-22T16:13:01;5.90;;;3.70;;
62256;SDS011;48240;52.962;5.790;2023-07-22T16:15:27;7.28;;;3.40;;
62256;SDS011;48240;52.962;5.790;2023-07-22T16:17:53;8.80;;;3.90;;
62256;SDS011;48240;52.962;5.790;2023-07-22T16:20:19;7.43;;;3.38;;
62256;SDS011;48240;52.962;5.790;2023-07-22T16:22:45;7.20;;;3.33;;
62256;SDS011;48240;52.962;5.790;2023-07-22T16:25:12;8.60;;;3.50;;
62256;SDS011;48240;52.962;5.790;2023-07-22T16:27:38;7.10;;;3.50;;
62256;SDS011;48240;52.962;5.790;2023-07-22T16:30:04;8.95;;;3.78;;
62256;SDS011;48240;52.962;5.790;2023-07-22T16:32:31;6.30;;;3.17;;
62256;SDS011;48240;52.962;5.790;2023-07-22T16:34:57;8.30;;;3.20;;
62256;SDS011;48240;52.962;5.790;2023-07-22T16:37:23;6.10;;;3.10;;
62256;SDS011;48240;52.962;5.790;2023-07-22T16:39:49;5.88;;;3.05;;
62256;SDS011;48240;52.962;5.790;2023-07-22T16:42:18;8.13;;;3.00;;
62256;SDS011;48240;52.962;5.790;2023-07-22T16:44:45;6.15;;;2.90;;
62256;SDS011;48240;52.962;5.790;2023-07-22T16:47:11;6.75;;;3.50;;
62256;SDS011;48240;52.962;5.790;2023-07-22T16:49:37;10.43;;;3.33;;
62256;SDS011;48240;52.962;5.790;2023-07-22T16:52:03;5.28;;;2.60;;
62256;SDS011;48240;52.962;5.790;2023-07-22T16:54:29;7.13;;;2.78;;
62256;SDS011;48240;52.962;5.790;2023-07-22T16:56:57;4.95;;;2.60;;
62256;SDS011;48240;52.962;5.790;2023-07-22T16:59:24;4.22;;;2.70;;
62256;SDS011;48240;52.962;5.790;2023-07-22T17:01:51;5.97;;;3.30;;
62256;SDS011;48240;52.962;5.790;2023-07-22T17:04:18;4.13;;;2.65;;
62256;SDS011;48240;52.962;5.790;2023-07-22T17:06:44;5.28;;;2.63;;
62256;SDS011;48240;52.962;5.790;2023-07-22T17:09:10;4.95;;;2.67;;
62256;SDS011;48240;52.962;5.790;2023-07-22T17:11:38;5.85;;;3.35;;
62256;SDS011;48240;52.962;5.790;2023-07-22T17:14:04;4.88;;;2.67;;
62256;SDS011;48240;52.962;5.790;2023-07-22T17:16:31;6.03;;;2.83;;
62256;SDS011;48240;52.962;5.790;2023-07-22T17:18:57;8.38;;;3.50;;
62256;SDS011;48240;52.962;5.790;2023-07-22T17:21:23;5.15;;;3.00;;
62256;SDS011;48240;52.962;5.790;2023-07-22T17:23:49;5.30;;;2.45;;
62256;SDS011;48240;52.962;5.790;2023-07-22T17:26:15;4.43;;;2.30;;
62256;SDS011;48240;52.962;5.790;2023-07-22T17:28:42;6.20;;;2.60;;
62256;SDS011;48240;52.962;5.790;2023-07-22T17:31:08;7.65;;;3.00;;
62256;SDS011;48240;52.962;5.790;2023-07-22T17:33:34;5.20;;;2.50;;
62256;SDS011;48240;52.962;5.790;2023-07-22T17:36:00;5.55;;;2.42;;
62256;SDS011;48240;52.962;5.790;2023-07-22T17:38:26;4.72;;;2.40;;
62256;SDS011;48240;52.962;5.790;2023-07-22T17:40:52;3.58;;;2.20;;
62256;SDS011;48240;52.962;5.790;2023-07-22T17:43:18;5.35;;;2.60;;
62256;SDS011;48240;52.962;5.790;2023-07-22T17:45:44;6.25;;;2.40;;
62256;SDS011;48240;52.962;5.790;2023-07-22T17:48:11;4.78;;;2.30;;
62256;SDS011;48240;52.962;5.790;2023-07-22T17:50:37;3.85;;;2.30;;
62256;SDS011;48240;52.962;5.790;2023-07-22T17:53:03;4.80;;;2.40;;
62256;SDS011;48240;52.962;5.790;2023-07-22T17:55:29;6.20;;;2.28;;
62256;SDS011;48240;52.962;5.790;2023-07-22T17:57:56;3.72;;;2.25;;
62256;SDS011;48240;52.962;5.790;2023-07-22T18:00:22;8.10;;;2.20;;
62256;SDS011;48240;52.962;5.790;2023-07-22T18:02:48;3.83;;;2.35;;
62256;SDS011;48240;52.962;5.790;2023-07-22T18:05:14;4.82;;;1.98;;
62256;SDS011;48240;52.962;5.790;2023-07-22T18:07:40;3.20;;;1.80;;
62256;SDS011;48240;52.962;5.790;2023-07-22T18:10:06;6.00;;;2.30;;
62256;SDS011;48240;52.962;5.790;2023-07-22T18:12:33;2.90;;;1.75;;
62256;SDS011;48240;52.962;5.790;2023-07-22T18:14:59;4.30;;;2.17;;
62256;SDS011;48240;52.962;5.790;2023-07-22T18:17:25;4.30;;;1.85;;
62256;SDS011;48240;52.962;5.790;2023-07-22T18:19:51;5.85;;;2.08;;
62256;SDS011;48240;52.962;5.790;2023-07-22T18:22:17;3.50;;;2.03;;
62256;SDS011;48240;52.962;5.790;2023-07-22T18:24:43;4.80;;;1.80;;
62256;SDS011;48240;52.962;5.790;2023-07-22T18:27:09;4.53;;;2.15;;
62256;SDS011;48240;52.962;5.790;2023-07-22T18:29:35;5.15;;;1.80;;
62256;SDS011;48240;52.962;5.790;2023-07-22T18:32:01;4.97;;;2.03;;
62256;SDS011;48240;52.962;5.790;2023-07-22T18:34:27;3.72;;;1.95;;
62256;SDS011;48240;52.962;5.790;2023-07-22T18:36:54;5.07;;;2.00;;
62256;SDS011;48240;52.962;5.790;2023-07-22T18:39:20;5.72;;;2.10;;